Mount Dora, Florida
Current Conditions -  °F | °C
As of 3:53 PM on Thursday 23 Oct 2014 (Local Time) from KLEE Reporting Station
Clear Clear  
Wind Chill: 80°   Ceiling: Unl
Heat Index: 80°   Visibility: 10mi
Dew Point: 52°   Wind: 8mph
Humidity: 38%   Direction: 80°E
Pressure: 29.95"   Gusts: NA
Location:  28.8°N, 81.64°W
Report Text: KLEE 231953Z 08007KT 10SM CLR 27/11 A2995 RMK AO2 SLP141 T02670111
Loading
Personal Weather Stations






























Interactive Weather Map
Tropical Storm Tracking
New forecast layout! Learn more

10-Day Weather Forecast

Advertisements
Track Severe Weather on mobile